Time;durP1;ratioP1;P1;durP2;ratioP2;P2;SDS_P1;SDS_P2;PMS_P1;PMS_P2;Temp;Humidity;BMP_temperature;BMP_pressure;BME280_temperature;BME280_humidity;BME280_pressure;Samples;Min_cycle;Max_cycle;Signal;HPM_P1;HPM_P2
2022/07/19 00:02:02;;;;;;;3.20;2.10;;;22.60;59.70;;;;;;4843908;29;20145;-80
2022/07/19 00:04:28;;;;;;;3.55;2.00;;;22.60;59.60;;;;;;4858964;29;20061;-80
2022/07/19 00:06:55;;;;;;;3.00;1.98;;;22.50;59.60;;;;;;4859929;29;20067;-79
2022/07/19 00:09:21;;;;;;;3.30;1.90;;;22.50;59.60;;;;;;4858949;29;20057;-80
2022/07/19 00:11:47;;;;;;;3.28;2.22;;;22.60;59.60;;;;;;4874480;29;20399;-80
2022/07/19 00:14:13;;;;;;;3.38;2.08;;;22.50;59.60;;;;;;4858899;29;20033;-81
2022/07/19 00:16:39;;;;;;;3.60;2.10;;;22.50;59.60;;;;;;4859974;29;20034;-80
2022/07/19 00:19:05;;;;;;;2.88;2.10;;;22.50;59.50;;;;;;4860185;29;20037;-80
2022/07/19 00:21:31;;;;;;;3.38;1.85;;;22.50;59.60;;;;;;4858917;29;20398;-80
2022/07/19 00:23:57;;;;;;;3.70;2.05;;;22.50;59.60;;;;;;4858826;29;20502;-80
2022/07/19 00:26:23;;;;;;;2.63;1.70;;;22.60;59.60;;;;;;4858659;29;20033;-80
2022/07/19 00:28:49;;;;;;;3.13;2.00;;;22.60;59.60;;;;;;4860028;29;20062;-80
2022/07/19 00:31:14;;;;;;;3.35;2.10;;;22.60;59.50;;;;;;4843405;29;20034;-80
2022/07/19 00:33:40;;;;;;;3.60;2.28;;;22.60;59.50;;;;;;4859768;29;20037;-81
2022/07/19 00:36:06;;;;;;;3.10;2.20;;;22.60;59.50;;;;;;4859649;29;20055;-80
2022/07/19 00:38:32;;;;;;;2.72;1.75;;;22.60;59.50;;;;;;4859711;29;20034;-80
2022/07/19 00:41:01;;;;;;;4.57;2.20;;;22.60;59.50;;;;;;4859880;29;20112;-80
2022/07/19 00:43:27;;;;;;;3.55;2.35;;;22.60;59.50;;;;;;4873989;29;20033;-80
2022/07/19 00:45:52;;;;;;;3.60;2.05;;;22.60;59.50;;;;;;4858320;29;20364;-80
2022/07/19 00:48:18;;;;;;;4.55;2.13;;;22.60;59.50;;;;;;4859559;29;20065;-80
2022/07/19 00:50:44;;;;;;;3.00;2.10;;;22.60;59.40;;;;;;4858719;29;20128;-80
2022/07/19 00:53:11;;;;;;;3.30;1.98;;;22.60;59.50;;;;;;4859458;29;20105;-80
2022/07/19 00:55:40;;;;;;;2.67;2.00;;;22.60;59.40;;;;;;4859365;29;20047;-80
2022/07/19 00:58:06;;;;;;;2.70;2.00;;;22.60;59.50;;;;;;4859671;29;20070;-80
2022/07/19 01:00:34;;;;;;;3.40;1.88;;;22.60;59.50;;;;;;4858463;29;20030;-80
2022/07/19 01:03:01;;;;;;;3.33;2.17;;;22.60;59.40;;;;;;4858428;29;20070;-80
2022/07/19 01:05:29;;;;;;;2.83;2.20;;;22.60;59.50;;;;;;4858100;29;20026;-81
2022/07/19 01:07:55;;;;;;;3.35;2.20;;;22.60;59.50;;;;;;4858366;29;20044;-80
2022/07/19 01:10:23;;;;;;;3.20;2.15;;;22.60;59.50;;;;;;4859785;29;20072;-80
2022/07/19 01:12:49;;;;;;;3.13;2.10;;;22.60;59.60;;;;;;4859398;29;20455;-80
2022/07/19 01:15:25;;;;;;;2.95;2.00;;;22.60;59.60;;;;;;4873408;29;20037;-80
2022/07/19 01:17:51;;;;;;;3.38;2.05;;;22.60;59.60;;;;;;4859403;29;20029;-79
2022/07/19 01:20:17;;;;;;;2.45;1.83;;;22.60;59.60;;;;;;4859301;29;20022;-80
2022/07/19 01:22:45;;;;;;;3.55;2.17;;;22.60;59.50;;;;;;4862888;29;20085;-80
2022/07/19 01:25:11;;;;;;;2.97;2.08;;;22.60;59.60;;;;;;4861615;29;20037;-80
2022/07/19 01:27:42;;;;;;;3.63;2.38;;;22.60;59.60;;;;;;4862791;29;20513;-80
2022/07/19 01:30:17;;;;;;;4.88;2.40;;;22.60;60.20;;;;;;4862881;29;20136;-80
2022/07/19 01:32:42;;;;;;;3.03;2.00;;;22.60;59.60;;;;;;4862506;29;20029;-80
2022/07/19 01:35:09;;;;;;;3.33;2.22;;;22.60;59.60;;;;;;4863047;29;20379;-80
2022/07/19 01:37:35;;;;;;;3.30;2.20;;;22.60;59.50;;;;;;4861847;29;20453;-80
2022/07/19 01:40:06;;;;;;;3.08;2.10;;;22.60;59.60;;;;;;4862719;29;20030;-80
2022/07/19 01:42:32;;;;;;;3.13;2.13;;;22.60;59.60;;;;;;4862631;29;20068;-80
2022/07/19 01:44:58;;;;;;;3.78;2.38;;;22.60;59.60;;;;;;4861443;29;20090;-80
2022/07/19 01:47:24;;;;;;;3.45;2.22;;;22.60;59.60;;;;;;4876515;29;20061;-80
2022/07/19 01:49:50;;;;;;;3.65;2.20;;;22.60;59.60;;;;;;4861442;29;20064;-80
2022/07/19 01:52:17;;;;;;;2.72;2.00;;;22.60;59.60;;;;;;4861290;29;20071;-80
2022/07/19 01:54:42;;;;;;;3.00;1.95;;;22.60;59.60;;;;;;4862521;29;20078;-80
2022/07/19 01:57:08;;;;;;;4.25;2.42;;;22.60;59.60;;;;;;4862167;29;20454;-80
2022/07/19 01:59:38;;;;;;;3.83;2.13;;;22.60;59.60;;;;;;4862600;29;20029;-80
2022/07/19 02:02:05;;;;;;;3.35;2.17;;;22.60;59.60;;;;;;4861312;29;20033;-80
2022/07/19 02:04:30;;;;;;;3.42;2.15;;;22.60;59.60;;;;;;4876456;29;20087;-80
2022/07/19 02:06:57;;;;;;;3.55;2.45;;;22.60;59.60;;;;;;4861849;29;20499;-80
2022/07/19 02:09:23;;;;;;;2.83;1.73;;;22.60;59.60;;;;;;4876571;29;20038;-80
2022/07/19 02:11:49;;;;;;;3.33;2.05;;;22.60;59.60;;;;;;4861011;29;20034;-80
2022/07/19 02:14:15;;;;;;;2.60;1.98;;;22.60;59.60;;;;;;4876448;29;20521;-80
2022/07/19 02:16:41;;;;;;;3.30;2.40;;;22.60;59.60;;;;;;4875972;29;20026;-80
2022/07/19 02:19:07;;;;;;;2.30;1.80;;;22.60;59.60;;;;;;4861026;29;20052;-80
2022/07/19 02:21:34;;;;;;;4.50;2.65;;;22.60;59.60;;;;;;4860819;29;20108;-80
2022/07/19 02:24:00;;;;;;;3.75;2.15;;;22.60;59.60;;;;;;4860747;29;20113;-80
2022/07/19 02:26:26;;;;;;;3.75;2.20;;;22.60;59.50;;;;;;4860621;29;20038;-80
2022/07/19 02:28:52;;;;;;;3.15;2.20;;;22.60;59.50;;;;;;4861767;29;20041;-80
2022/07/19 02:31:18;;;;;;;3.42;1.83;;;22.60;59.50;;;;;;4861606;29;20037;-80
2022/07/19 02:33:44;;;;;;;2.55;1.75;;;22.60;59.50;;;;;;4860638;29;20037;-81
2022/07/19 02:36:10;;;;;;;3.58;2.35;;;22.60;59.50;;;;;;4861372;29;20087;-80
2022/07/19 02:38:36;;;;;;;4.05;2.13;;;22.60;59.40;;;;;;4860434;29;20029;-79
2022/07/19 02:41:02;;;;;;;3.25;2.15;;;22.60;59.40;;;;;;4860515;29;20034;-80
2022/07/19 02:43:28;;;;;;;3.28;2.17;;;22.60;59.40;;;;;;4861437;29;20113;-81
2022/07/19 02:45:54;;;;;;;3.95;2.38;;;22.60;59.40;;;;;;4861108;29;20104;-79
2022/07/19 02:48:20;;;;;;;3.78;2.55;;;22.60;59.40;;;;;;4861438;29;20479;-80
2022/07/19 02:50:45;;;;;;;3.47;2.33;;;22.60;59.40;;;;;;4875745;29;20066;-79
2022/07/19 02:53:11;;;;;;;3.50;2.38;;;22.60;59.40;;;;;;4861237;29;20116;-79
2022/07/19 02:55:37;;;;;;;4.03;2.45;;;22.60;59.30;;;;;;4860981;29;20064;-80
2022/07/19 02:58:04;;;;;;;3.17;1.92;;;22.60;59.40;;;;;;4844805;29;20025;-80
2022/07/19 03:00:30;;;;;;;3.70;2.30;;;22.60;59.40;;;;;;4860047;29;20032;-79
2022/07/19 03:03:43;;;;;;;3.22;2.17;;;22.60;59.40;;;;;;4860342;29;20101;-79
2022/07/19 03:05:44;;;;;;;3.33;2.30;;;22.60;59.40;;;;;;4860980;29;20113;-80
2022/07/19 03:08:10;;;;;;;3.45;2.35;;;22.60;59.40;;;;;;4861166;29;20529;-80
2022/07/19 03:10:36;;;;;;;4.22;2.33;;;22.60;59.40;;;;;;4861047;29;20040;-80
2022/07/19 03:13:02;;;;;;;3.30;1.92;;;22.60;59.50;;;;;;4875365;29;20040;-80
2022/07/19 03:15:28;;;;;;;4.50;2.97;;;22.60;59.40;;;;;;4860826;29;20037;-80
2022/07/19 03:17:54;;;;;;;3.58;2.15;;;22.60;59.50;;;;;;4859843;29;20531;-80
2022/07/19 03:20:23;;;;;;;3.97;2.17;;;22.60;59.50;;;;;;4859802;29;20025;-80
2022/07/19 03:22:49;;;;;;;3.65;2.42;;;22.60;59.40;;;;;;4860815;29;20166;-79
2022/07/19 03:25:15;;;;;;;3.85;2.40;;;22.60;59.40;;;;;;4859405;29;20046;-80
2022/07/19 03:27:40;;;;;;;4.07;2.30;;;22.60;59.40;;;;;;4860761;29;20032;-80
2022/07/19 03:30:07;;;;;;;3.78;2.38;;;22.60;59.50;;;;;;4860783;29;20029;-80
2022/07/19 03:32:32;;;;;;;3.95;2.50;;;22.60;59.40;;;;;;4860444;29;20502;-80
2022/07/19 03:34:58;;;;;;;3.33;2.03;;;22.60;59.50;;;;;;4860891;29;20032;-81
2022/07/19 03:37:24;;;;;;;3.30;2.28;;;22.60;59.40;;;;;;4874632;29;20033;-80
2022/07/19 03:39:50;;;;;;;3.92;2.33;;;22.60;59.50;;;;;;4860467;29;20026;-79
2022/07/19 03:42:16;;;;;;;4.43;2.35;;;22.60;59.40;;;;;;4860532;29;20113;-79
2022/07/19 03:44:42;;;;;;;4.07;2.38;;;22.60;59.40;;;;;;4860250;29;20029;-79
2022/07/19 03:47:08;;;;;;;2.65;2.00;;;22.60;59.50;;;;;;4860152;29;20049;-80
2022/07/19 03:49:34;;;;;;;4.07;2.38;;;22.60;59.40;;;;;;4859486;29;20037;-79
2022/07/19 03:51:59;;;;;;;3.30;2.08;;;22.60;59.80;;;;;;4860289;29;20481;-79
2022/07/19 03:54:25;;;;;;;3.28;2.10;;;22.60;59.40;;;;;;4859235;29;20077;-79
2022/07/19 03:56:51;;;;;;;4.55;2.35;;;22.60;59.40;;;;;;4859956;29;20053;-79
2022/07/19 03:59:17;;;;;;;3.40;2.25;;;22.60;59.40;;;;;;4860320;29;20104;-79
2022/07/19 04:01:43;;;;;;;3.72;2.30;;;22.60;59.40;;;;;;4874851;29;20030;-79
2022/07/19 04:04:09;;;;;;;3.58;2.42;;;22.60;59.50;;;;;;4860444;29;20041;-79
2022/07/19 04:06:34;;;;;;;4.40;2.30;;;22.60;59.50;;;;;;4874430;29;20045;-80
2022/07/19 04:09:00;;;;;;;3.95;2.58;;;22.60;59.40;;;;;;4860283;29;20116;-80
2022/07/19 04:11:26;;;;;;;3.83;2.53;;;22.60;59.40;;;;;;4858866;29;20030;-80
2022/07/19 04:13:52;;;;;;;3.53;2.50;;;22.60;59.40;;;;;;4858975;29;20052;-81
2022/07/19 04:16:18;;;;;;;3.58;2.15;;;22.60;59.40;;;;;;4858697;29;20420;-80
2022/07/19 04:18:43;;;;;;;5.40;2.65;;;22.60;59.40;;;;;;4859516;29;20502;-80
2022/07/19 04:21:09;;;;;;;3.85;2.55;;;22.60;60.00;;;;;;4859307;29;20082;-80
2022/07/19 04:23:35;;;;;;;4.30;2.92;;;22.60;59.40;;;;;;4860352;29;20033;-79
2022/07/19 04:26:01;;;;;;;3.97;2.42;;;22.60;59.40;;;;;;4859691;29;20029;-79
2022/07/19 04:28:26;;;;;;;4.75;2.40;;;22.60;59.40;;;;;;4860106;29;20113;-78
2022/07/19 04:30:52;;;;;;;3.70;2.50;;;22.60;59.40;;;;;;4858882;29;20162;-79
2022/07/19 04:33:19;;;;;;;3.53;2.47;;;22.60;59.30;;;;;;4858496;29;20034;-80
2022/07/19 04:35:45;;;;;;;4.05;2.42;;;22.60;59.30;;;;;;4859602;29;20057;-79
2022/07/19 04:38:11;;;;;;;3.67;2.25;;;22.60;59.30;;;;;;4843419;29;20045;-80
2022/07/19 04:40:38;;;;;;;3.63;2.35;;;22.70;59.30;;;;;;4843603;29;20126;-79
2022/07/19 04:43:04;;;;;;;3.95;2.40;;;22.60;59.30;;;;;;4874230;29;20431;-79
2022/07/19 04:45:30;;;;;;;4.97;2.50;;;22.70;59.30;;;;;;4873844;29;20487;-79
2022/07/19 04:47:56;;;;;;;4.63;2.53;;;22.70;59.30;;;;;;4860020;29;20033;-79
2022/07/19 04:50:22;;;;;;;4.32;2.53;;;22.60;59.20;;;;;;4858752;29;20048;-79
2022/07/19 04:52:48;;;;;;;3.65;2.45;;;22.70;59.20;;;;;;4873913;29;20037;-79
2022/07/19 04:55:14;;;;;;;3.33;2.30;;;22.70;59.30;;;;;;4858799;29;20121;-80
2022/07/19 04:57:40;;;;;;;7.82;2.67;;;22.70;59.30;;;;;;4863339;29;20034;-80
2022/07/19 05:00:12;;;;;;;3.70;2.50;;;22.70;59.30;;;;;;4862617;29;20080;-79
2022/07/19 05:02:38;;;;;;;4.30;2.80;;;22.60;59.20;;;;;;4877555;29;20044;-79
2022/07/19 05:05:05;;;;;;;4.78;2.80;;;22.60;59.20;;;;;;4862225;29;20045;-78
2022/07/19 05:07:31;;;;;;;3.63;2.40;;;22.60;59.20;;;;;;4863248;29;20061;-79
2022/07/19 05:09:57;;;;;;;4.15;2.67;;;22.60;59.20;;;;;;4863201;29;20065;-79
2022/07/19 05:12:23;;;;;;;4.28;2.60;;;22.60;59.20;;;;;;4861878;29;20049;-79
2022/07/19 05:14:49;;;;;;;4.10;2.35;;;22.60;59.20;;;;;;4863124;29;20483;-79
2022/07/19 05:17:15;;;;;;;3.70;2.50;;;22.70;59.30;;;;;;4861763;29;20034;-79
2022/07/19 05:19:41;;;;;;;3.15;2.10;;;22.60;59.30;;;;;;4831329;29;20030;-79
2022/07/19 05:22:07;;;;;;;4.18;2.53;;;22.60;59.30;;;;;;4862986;29;20029;-79
2022/07/19 05:24:33;;;;;;;4.30;2.55;;;22.60;59.40;;;;;;4863026;29;20153;-79
2022/07/19 05:26:59;;;;;;;4.30;2.83;;;22.60;59.50;;;;;;4861592;29;20518;-79
2022/07/19 05:29:25;;;;;;;3.70;2.42;;;22.60;59.40;;;;;;4861853;29;20445;-78
2022/07/19 05:31:51;;;;;;;4.00;2.42;;;22.60;59.30;;;;;;4862603;29;20033;-78
2022/07/19 05:34:17;;;;;;;4.10;2.15;;;22.60;59.30;;;;;;4861539;29;20029;-78
2022/07/19 05:36:43;;;;;;;3.90;2.40;;;22.60;59.30;;;;;;4876789;29;20033;-78
2022/07/19 05:39:08;;;;;;;3.53;2.22;;;22.70;59.30;;;;;;4877034;29;20195;-78
2022/07/19 05:41:34;;;;;;;4.03;2.42;;;22.70;59.30;;;;;;4876819;29;20064;-78
2022/07/19 05:44:00;;;;;;;3.90;2.58;;;22.70;59.30;;;;;;4876910;29;20029;-78
2022/07/19 05:46:26;;;;;;;3.80;2.50;;;22.60;59.30;;;;;;4862448;29;20566;-78
2022/07/19 05:48:52;;;;;;;4.28;2.50;;;22.70;59.30;;;;;;4861491;29;20041;-78
2022/07/19 05:51:18;;;;;;;3.42;2.50;;;22.70;59.30;;;;;;4861300;29;20048;-78
2022/07/19 05:53:44;;;;;;;5.10;2.53;;;22.70;59.30;;;;;;4861220;29;20038;-79
2022/07/19 05:56:10;;;;;;;3.50;2.28;;;22.70;59.30;;;;;;4861052;29;20041;-79
2022/07/19 05:58:36;;;;;;;4.68;2.60;;;22.70;59.30;;;;;;4862439;29;20238;-78
2022/07/19 06:01:17;;;;;;;4.03;2.50;;;22.70;59.30;;;;;;4862371;29;20108;-78
2022/07/19 06:03:48;;;;;;;5.00;2.40;;;22.70;59.40;;;;;;4862203;29;20121;-78
2022/07/19 06:06:15;;;;;;;4.00;2.40;;;22.70;59.40;;;;;;4860799;29;20061;-78
2022/07/19 06:08:41;;;;;;;3.15;2.20;;;22.70;59.30;;;;;;4862177;29;20034;-78
2022/07/19 06:11:07;;;;;;;3.33;2.28;;;22.70;59.40;;;;;;4876390;29;20445;-78
2022/07/19 06:13:33;;;;;;;4.05;2.60;;;22.70;59.40;;;;;;4860728;29;20030;-78
2022/07/19 06:15:59;;;;;;;3.25;2.45;;;22.60;59.30;;;;;;4861688;29;20037;-78
2022/07/19 06:18:25;;;;;;;3.72;2.35;;;22.70;59.40;;;;;;4860920;29;20042;-78
2022/07/19 06:20:52;;;;;;;4.88;2.20;;;22.70;59.40;;;;;;4876093;29;20030;-78
2022/07/19 06:23:17;;;;;;;3.65;2.60;;;22.70;59.40;;;;;;4876179;29;20061;-79
2022/07/19 06:25:43;;;;;;;4.47;2.42;;;22.70;59.40;;;;;;4861839;29;20038;-78
2022/07/19 06:28:09;;;;;;;3.28;2.33;;;22.70;59.40;;;;;;4861862;29;20041;-79
2022/07/19 06:30:35;;;;;;;3.60;2.40;;;22.70;59.30;;;;;;4876100;29;20040;-79
2022/07/19 06:33:00;;;;;;;3.83;2.45;;;22.70;59.30;;;;;;4861760;29;20508;-79
2022/07/19 06:35:26;;;;;;;4.03;2.30;;;22.70;59.30;;;;;;4861444;29;20033;-78
2022/07/19 06:37:52;;;;;;;3.40;2.35;;;22.70;59.40;;;;;;4861808;29;20071;-79
2022/07/19 06:40:18;;;;;;;3.33;2.20;;;22.70;59.30;;;;;;4845304;29;20037;-78
2022/07/19 06:42:44;;;;;;;3.55;2.55;;;22.70;59.30;;;;;;4861703;29;20053;-78
2022/07/19 06:45:10;;;;;;;3.33;2.22;;;22.80;59.40;;;;;;4861376;29;20112;-78
2022/07/19 06:47:37;;;;;;;3.20;2.03;;;22.80;59.40;;;;;;4861556;29;20406;-79
2022/07/19 06:50:03;;;;;;;4.38;2.65;;;22.70;59.40;;;;;;4861637;29;20040;-78
2022/07/19 06:52:29;;;;;;;3.65;1.90;;;22.80;59.40;;;;;;4861185;29;20044;-79
2022/07/19 06:54:54;;;;;;;3.33;2.42;;;22.80;59.40;;;;;;4861698;29;20034;-78
2022/07/19 06:57:20;;;;;;;2.75;2.00;;;22.80;59.40;;;;;;4861151;29;20026;-78
2022/07/19 06:59:46;;;;;;;5.97;2.50;;;22.80;59.50;;;;;;4861216;29;20029;-78
2022/07/19 07:02:12;;;;;;;3.28;2.40;;;22.80;59.40;;;;;;4860063;29;20061;-78
2022/07/19 07:04:38;;;;;;;4.90;2.70;;;22.80;59.50;;;;;;4875673;29;20116;-78
2022/07/19 07:07:03;;;;;;;5.25;2.35;;;22.70;59.40;;;;;;4860023;29;20038;-79
2022/07/19 07:09:29;;;;;;;3.92;2.42;;;22.80;59.50;;;;;;4861397;29;20041;-78
2022/07/19 07:11:55;;;;;;;3.72;2.53;;;22.70;59.50;;;;;;4859895;29;20089;-79
2022/07/19 07:14:21;;;;;;;3.35;2.10;;;22.80;59.50;;;;;;4861215;29;20037;-78
2022/07/19 07:16:46;;;;;;;3.50;2.22;;;22.80;59.60;;;;;;4860849;29;20033;-78
2022/07/19 07:19:12;;;;;;;3.95;2.28;;;22.80;60.00;;;;;;4860380;29;20558;-79
2022/07/19 07:21:38;;;;;;;3.45;2.03;;;22.80;59.70;;;;;;4860859;29;20040;-78
2022/07/19 07:24:05;;;;;;;3.33;2.30;;;22.80;59.70;;;;;;4859658;29;20034;-78
2022/07/19 07:26:31;;;;;;;3.30;2.47;;;22.80;59.60;;;;;;4859617;29;20120;-78
2022/07/19 07:28:58;;;;;;;3.80;2.33;;;22.80;59.70;;;;;;4860827;29;20033;-78
2022/07/19 07:31:23;;;;;;;3.72;2.33;;;22.80;59.60;;;;;;4860673;29;20121;-79
2022/07/19 07:33:49;;;;;;;3.00;1.88;;;22.80;59.60;;;;;;4860678;29;20067;-78
2022/07/19 07:36:15;;;;;;;3.13;2.10;;;22.80;59.70;;;;;;4860643;29;20068;-78
2022/07/19 07:38:41;;;;;;;3.60;2.28;;;22.80;59.70;;;;;;4859330;29;20044;-78
2022/07/19 07:41:08;;;;;;;3.45;2.20;;;22.80;59.70;;;;;;4859524;29;20033;-78
2022/07/19 07:43:35;;;;;;;2.95;2.05;;;22.80;59.70;;;;;;4860444;29;20041;-78
2022/07/19 07:46:01;;;;;;;4.25;2.13;;;22.80;59.80;;;;;;4859229;29;20040;-78
2022/07/19 07:48:27;;;;;;;3.17;2.17;;;22.80;59.80;;;;;;4859491;29;20132;-78
2022/07/19 07:50:52;;;;;;;3.28;2.38;;;22.80;59.70;;;;;;4859674;29;20033;-78
2022/07/19 07:53:18;;;;;;;3.40;2.40;;;22.80;59.70;;;;;;4860221;29;20036;-78
2022/07/19 07:55:44;;;;;;;3.30;2.30;;;22.80;59.80;;;;;;4860085;29;20085;-78
2022/07/19 07:58:11;;;;;;;4.65;2.50;;;22.80;59.80;;;;;;4859177;29;20025;-78
2022/07/19 08:00:38;;;;;;;5.22;2.85;;;22.80;59.80;;;;;;4859209;29;20265;-78
2022/07/19 08:03:04;;;;;;;4.05;2.47;;;22.80;59.80;;;;;;4860233;29;20029;-78
2022/07/19 08:05:31;;;;;;;3.30;2.30;;;22.80;59.80;;;;;;4860038;29;20067;-78
2022/07/19 08:07:58;;;;;;;4.15;2.60;;;22.80;59.80;;;;;;4860146;29;20033;-78
2022/07/19 08:10:26;;;;;;;3.78;2.42;;;22.90;59.90;;;;;;4860103;29;20033;-78
2022/07/19 08:12:52;;;;;;;3.03;2.22;;;22.90;59.90;;;;;;4859870;29;20041;-79
2022/07/19 08:15:20;;;;;;;4.07;2.50;;;22.90;59.90;;;;;;4858473;29;20030;-78
2022/07/19 08:17:45;;;;;;;2.85;1.92;;;22.90;59.90;;;;;;4858928;29;20116;-79
2022/07/19 08:20:12;;;;;;;4.15;2.50;;;22.80;59.80;;;;;;4860079;29;20064;-78
2022/07/19 08:22:38;;;;;;;3.22;2.15;;;22.90;59.90;;;;;;4859858;29;20116;-78
2022/07/19 08:49:57;;;;;;;2.97;2.08;;;23.00;59.80;;;;;;4860054;29;20027;-78
2022/07/19 08:52:24;;;;;;;3.65;2.53;;;23.00;59.80;;;;;;4859463;29;20483;-78
2022/07/19 08:54:50;;;;;;;3.47;2.30;;;23.00;59.80;;;;;;4873895;29;20150;-79
2022/07/19 09:00:00;;;;;;;3.22;2.25;;;23.00;59.90;;;;;;4858588;29;20029;-77
2022/07/19 09:02:26;;;;;;;4.03;2.47;;;23.00;59.80;;;;;;4858554;29;20173;-78
2022/07/19 09:05:10;;;;;;;3.78;2.45;;;23.00;59.90;;;;;;4859699;29;20037;-78
2022/07/19 09:07:39;;;;;;;3.15;2.00;;;23.00;59.90;;;;;;4860090;29;20041;-78
2022/07/19 09:10:17;;;;;;;3.63;2.30;;;23.00;59.90;;;;;;4858625;29;20040;-78
2022/07/19 09:12:59;;;;;;;3.42;2.17;;;23.00;59.90;;;;;;4859530;29;20044;-78
2022/07/19 09:15:42;;;;;;;3.10;2.17;;;23.00;59.90;;;;;;4858439;29;20036;-78
2022/07/19 09:18:17;;;;;;;2.88;2.13;;;22.90;59.90;;;;;;4859601;29;20419;-78
2022/07/19 09:20:44;;;;;;;3.25;2.20;;;23.00;60.00;;;;;;4842996;29;20452;-78
2022/07/19 09:23:11;;;;;;;2.95;2.10;;;23.00;60.50;;;;;;4859624;29;20038;-78
2022/07/19 09:25:42;;;;;;;2.95;2.13;;;23.00;60.00;;;;;;4859115;29;20045;-78
2022/07/19 09:28:08;;;;;;;3.35;2.20;;;23.00;60.00;;;;;;4859643;29;20105;-79
2022/07/19 09:30:37;;;;;;;2.97;2.15;;;23.00;60.00;;;;;;4858227;29;20033;-79
2022/07/19 09:33:15;;;;;;;3.72;2.45;;;23.00;60.00;;;;;;4857993;29;20554;-78
2022/07/19 09:35:45;;;;;;;3.25;2.20;;;23.00;60.00;;;;;;4842710;29;20033;-78
2022/07/19 09:38:27;;;;;;;3.45;2.22;;;23.00;60.00;;;;;;4859316;29;20399;-78
2022/07/19 09:41:06;;;;;;;3.10;2.10;;;23.00;60.10;;;;;;4859210;29;20029;-78
2022/07/19 09:43:52;;;;;;;3.10;2.10;;;23.00;60.10;;;;;;4862314;29;20030;-79
2022/07/19 09:46:34;;;;;;;3.15;2.05;;;23.00;60.00;;;;;;4862362;29;20033;-78
2022/07/19 09:49:14;;;;;;;3.88;2.22;;;23.00;60.10;;;;;;4846151;29;20498;-78
2022/07/19 09:51:51;;;;;;;3.58;1.95;;;23.00;60.10;;;;;;4861130;29;20402;-78
2022/07/19 09:54:20;;;;;;;3.53;2.20;;;23.00;60.00;;;;;;4862591;29;20068;-78
2022/07/19 09:56:48;;;;;;;3.03;2.15;;;23.00;60.00;;;;;;4861981;29;20491;-78
2022/07/19 09:59:14;;;;;;;3.97;2.20;;;23.00;60.10;;;;;;4861245;29;20026;-78
2022/07/19 10:01:42;;;;;;;2.78;2.00;;;23.00;60.10;;;;;;4876530;29;20444;-78
2022/07/19 10:04:13;;;;;;;3.08;1.80;;;23.00;60.70;;;;;;4862225;29;20030;-78
2022/07/19 10:06:40;;;;;;;4.45;2.60;;;23.00;60.10;;;;;;4861985;29;20044;-78
2022/07/19 10:09:09;;;;;;;2.65;1.95;;;23.00;60.10;;;;;;4861168;29;20069;-78
2022/07/19 10:11:36;;;;;;;3.30;1.88;;;23.00;60.10;;;;;;4876502;29;20044;-78
2022/07/19 10:14:02;;;;;;;3.28;2.20;;;23.00;60.10;;;;;;4861398;29;20061;-78
2022/07/19 10:16:53;;;;;;;3.45;1.98;;;23.00;60.10;;;;;;4861979;29;20513;-78
2022/07/19 10:19:34;;;;;;;3.55;1.98;;;23.00;60.10;;;;;;4860927;29;20034;-78
2022/07/19 10:22:01;;;;;;;3.40;2.20;;;23.00;60.10;;;;;;4860678;29;20061;-78
2022/07/19 10:24:47;;;;;;;3.15;2.20;;;23.10;60.10;;;;;;4860765;29;20037;-78
2022/07/19 10:27:16;;;;;;;3.83;2.20;;;23.10;60.10;;;;;;4860483;29;20034;-78
2022/07/19 10:29:42;;;;;;;3.72;2.10;;;23.10;60.10;;;;;;4861829;29;20037;-78
2022/07/19 10:32:10;;;;;;;2.75;1.92;;;23.10;60.00;;;;;;4874100;23;20095;-70
2022/07/19 10:34:37;;;;;;;3.10;2.08;;;23.10;60.00;;;;;;4854745;29;20034;-70
2022/07/19 10:37:03;;;;;;;3.08;2.10;;;23.10;60.60;;;;;;4860057;29;20546;-70
2022/07/19 10:39:37;;;;;;;3.38;2.17;;;23.10;60.60;;;;;;4861774;29;20545;-70
2022/07/19 10:42:14;;;;;;;2.88;2.00;;;23.10;60.00;;;;;;4857267;29;20121;-70
2022/07/19 10:44:55;;;;;;;2.78;1.80;;;23.10;60.00;;;;;;4842089;29;20042;-71
2022/07/19 10:47:39;;;;;;;2.58;1.92;;;23.10;60.00;;;;;;4842885;29;20034;-70
2022/07/19 10:50:18;;;;;;;3.00;1.92;;;23.10;60.00;;;;;;4842162;29;20049;-70
2022/07/19 10:52:45;;;;;;;2.92;1.90;;;23.10;60.10;;;;;;4842496;29;20042;-71
2022/07/19 10:55:17;;;;;;;2.80;1.80;;;23.10;60.10;;;;;;4840977;29;20054;-71
2022/07/19 10:58:04;;;;;;;2.92;1.85;;;23.10;60.10;;;;;;4857225;29;20037;-70
2022/07/19 11:00:32;;;;;;;3.38;2.08;;;23.10;60.00;;;;;;4842733;29;20034;-71
2022/07/19 11:03:20;;;;;;;3.25;1.98;;;23.10;60.10;;;;;;4841234;29;20046;-71
2022/07/19 11:05:49;;;;;;;2.53;1.85;;;23.10;60.10;;;;;;4834718;29;20448;-70
2022/07/19 11:08:15;;;;;;;3.10;1.95;;;23.10;60.70;;;;;;4841481;29;20034;-70
2022/07/19 11:10:41;;;;;;;2.72;1.80;;;23.10;60.10;;;;;;4856890;29;20040;-70
2022/07/19 11:13:07;;;;;;;2.30;1.73;;;23.10;60.30;;;;;;4856711;29;20034;-71
2022/07/19 11:15:33;;;;;;;3.72;2.30;;;23.00;60.10;;;;;;4842149;29;20113;-70
2022/07/19 11:18:05;;;;;;;3.22;2.03;;;23.00;60.10;;;;;;4842458;29;20036;-71
2022/07/19 11:20:36;;;;;;;2.38;1.88;;;23.10;60.20;;;;;;4856308;29;20395;-70
2022/07/19 11:23:04;;;;;;;2.85;2.20;;;23.10;60.20;;;;;;4841270;29;20030;-70
2022/07/19 11:25:36;;;;;;;3.70;2.45;;;23.10;60.20;;;;;;4856168;29;20030;-70
2022/07/19 11:28:02;;;;;;;2.83;2.00;;;23.10;60.20;;;;;;4856458;29;20084;-71
2022/07/19 11:30:31;;;;;;;3.47;2.45;;;23.10;60.30;;;;;;4842346;29;20030;-70
2022/07/19 11:33:00;;;;;;;2.53;1.75;;;23.10;60.30;;;;;;4842076;29;20034;-70
2022/07/19 11:35:26;;;;;;;2.53;1.87;;;23.10;60.30;;;;;;4825729;29;20049;-70
2022/07/19 11:37:56;;;;;;;2.85;1.90;;;23.00;60.20;;;;;;4842123;29;20034;-70
2022/07/19 11:40:24;;;;;;;2.88;1.80;;;23.10;60.30;;;;;;4842036;29;20101;-69
2022/07/19 11:42:51;;;;;;;2.38;1.70;;;23.10;60.30;;;;;;4840828;29;20498;-70
2022/07/19 11:45:21;;;;;;;2.42;1.65;;;23.00;60.30;;;;;;4855969;29;20041;-70
2022/07/19 11:47:50;;;;;;;3.45;2.13;;;23.10;60.30;;;;;;4841963;29;20144;-70
2022/07/19 11:50:18;;;;;;;2.78;2.00;;;23.00;60.30;;;;;;4825788;29;20038;-70
2022/07/19 11:53:03;;;;;;;2.78;1.88;;;23.10;60.30;;;;;;4841848;29;20129;-70
2022/07/19 11:55:39;;;;;;;3.10;1.98;;;23.10;60.30;;;;;;4855814;29;20112;-70
2022/07/19 11:58:10;;;;;;;2.65;1.98;;;23.10;60.30;;;;;;4841732;29;20038;-70
2022/07/19 12:00:36;;;;;;;2.67;2.00;;;23.10;60.30;;;;;;4856142;29;20038;-70
2022/07/19 12:03:08;;;;;;;3.08;1.98;;;23.10;60.30;;;;;;4840598;29;20066;-70
2022/07/19 12:05:38;;;;;;;3.80;2.17;;;23.00;60.30;;;;;;4840089;29;20069;-70
2022/07/19 12:08:07;;;;;;;2.75;1.88;;;23.10;60.40;;;;;;4855847;29;20037;-70
2022/07/19 12:10:37;;;;;;;2.63;1.77;;;23.10;60.40;;;;;;4825223;29;20364;-70
2022/07/19 12:13:04;;;;;;;2.83;1.88;;;23.10;60.30;;;;;;4855600;29;20125;-70
2022/07/19 12:15:44;;;;;;;2.38;1.83;;;23.10;60.40;;;;;;4855613;29;20038;-70
2022/07/19 12:18:12;;;;;;;;;;;23.10;60.30;;;;;;4840664;29;20413;-70
2022/07/19 12:20:38;;;;;;;3.25;2.08;;;23.10;60.30;;;;;;4840556;29;19912;-70
2022/07/19 12:23:18;;;;;;;2.50;1.90;;;23.10;60.30;;;;;;4841270;29;20045;-70
2022/07/19 12:25:44;;;;;;;3.05;2.00;;;23.10;60.20;;;;;;4841064;29;20038;-70
2022/07/19 12:28:11;;;;;;;3.08;1.92;;;23.10;60.20;;;;;;4841370;29;20036;-70
2022/07/19 12:30:37;;;;;;;3.08;1.52;;;23.20;60.30;;;;;;4841267;29;20041;-70
2022/07/19 12:33:10;;;;;;;2.90;1.88;;;23.10;60.20;;;;;;4841001;29;20034;-70
2022/07/19 12:35:47;;;;;;;3.42;2.17;;;23.10;60.20;;;;;;4841070;29;20105;-70
2022/07/19 12:38:14;;;;;;;3.45;2.30;;;23.10;60.20;;;;;;4841365;29;20034;-70
2022/07/19 12:40:42;;;;;;;3.15;1.83;;;23.20;60.20;;;;;;4840234;29;20038;-70
2022/07/19 12:43:12;;;;;;;2.55;1.95;;;23.10;60.20;;;;;;4841073;29;20030;-70
2022/07/19 12:45:46;;;;;;;2.60;2.00;;;23.20;60.30;;;;;;4839742;29;20049;-70
2022/07/19 12:48:15;;;;;;;2.95;2.00;;;23.20;60.20;;;;;;4841154;29;20034;-70
2022/07/19 12:50:44;;;;;;;2.00;1.60;;;23.10;60.20;;;;;;4841235;29;20030;-70
2022/07/19 12:53:12;;;;;;;2.92;1.88;;;23.20;60.30;;;;;;4839817;29;20077;-70
2022/07/19 12:55:40;;;;;;;2.80;1.83;;;23.20;60.30;;;;;;4839876;29;20055;-70
2022/07/19 12:58:07;;;;;;;3.28;2.05;;;23.10;60.30;;;;;;4841189;29;20063;-70
2022/07/19 13:00:34;;;;;;;2.35;1.60;;;23.10;60.30;;;;;;4839829;29;20148;-70
2022/07/19 13:03:01;;;;;;;2.38;1.77;;;23.10;60.30;;;;;;4855298;29;20065;-70
2022/07/19 13:05:28;;;;;;;3.60;1.92;;;23.20;60.40;;;;;;4840745;29;20042;-70
2022/07/19 13:07:55;;;;;;;2.53;1.60;;;23.20;60.40;;;;;;4839945;29;20125;-70
2022/07/19 13:10:22;;;;;;;2.85;1.95;;;23.20;60.40;;;;;;4839877;29;20038;-70
2022/07/19 13:12:48;;;;;;;2.90;1.55;;;23.10;60.40;;;;;;4839641;29;20046;-70
2022/07/19 13:15:14;;;;;;;2.78;1.85;;;23.20;60.40;;;;;;4854710;29;20030;-70
2022/07/19 13:17:41;;;;;;;2.58;1.80;;;23.20;60.50;;;;;;4843420;29;20034;-70
2022/07/19 13:20:08;;;;;;;2.05;1.50;;;23.20;60.40;;;;;;4843343;29;20033;-70